Time;durP1;ratioP1;P1;durP2;ratioP2;P2;SDS_P1;SDS_P2;PMS_P1;PMS_P2;Temp;Humidity;BMP_temperature;BMP_pressure;BME280_temperature;BME280_humidity;BME280_pressure;Samples;Min_cycle;Max_cycle;Signal;HPM_P1;HPM_P2
2021/11/20 00:00:56;;;;;;;9.32;3.92;;;;;;;10.44;77.70;103008.50;5074708;28;20467;-61
2021/11/20 00:03:21;;;;;;;15.75;4.13;;;;;;;10.43;77.35;103005.88;5085269;28;20020;-61
2021/11/20 00:05:51;;;;;;;8.77;4.15;;;;;;;10.42;77.54;103004.13;5088651;28;20020;-60
2021/11/20 00:08:18;;;;;;;9.45;4.00;;;;;;;10.43;77.35;103005.88;5088230;28;20467;-60
2021/11/20 00:10:46;;;;;;;8.00;3.10;;;;;;;10.44;77.04;103008.50;5088493;28;20390;-60
2021/11/20 00:13:12;;;;;;;5.95;4.28;;;;;;;10.44;76.90;103000.59;5087685;28;20020;-60
2021/11/20 00:15:46;;;;;;;8.05;4.80;;;;;;;10.45;77.11;102983.03;5087526;28;20474;-60
2021/11/20 00:18:13;;;;;;;7.85;5.22;;;;;;;10.46;77.11;102992.72;5087059;28;20043;-60
2021/11/20 00:20:45;;;;;;;7.32;4.53;;;;;;;10.42;76.83;102994.44;5086873;28;20089;-60
2021/11/20 00:23:13;;;;;;;10.27;3.78;;;;;;;10.47;76.68;102991.84;5086483;28;20052;-60
2021/11/20 00:25:47;;;;;;;7.38;4.32;;;;;;;10.47;76.70;102983.94;5087932;28;20370;-60
2021/11/20 00:28:19;;;;;;;7.78;4.22;;;;;;;10.49;76.29;102980.44;5086792;28;20048;-60
2021/11/20 00:30:53;;;;;;;7.95;4.70;;;;;;;10.49;76.61;102985.72;5087654;28;20032;-60
2021/11/20 00:33:19;;;;;;;9.70;5.30;;;;;;;10.50;76.23;102983.94;5087165;28;20547;-60
2021/11/20 00:35:45;;;;;;;8.57;5.47;;;;;;;10.49;76.93;102980.44;5087746;28;20390;-60
2021/11/20 00:38:12;;;;;;;8.38;5.53;;;;;;;10.49;76.55;102982.19;5086557;28;20032;-60
2021/11/20 00:40:42;;;;;;;9.00;5.90;;;;;;;10.47;76.53;102976.91;5088046;28;20027;-60
2021/11/20 00:43:08;;;;;;;10.93;5.85;;;;;;;10.47;76.65;102981.31;5084309;28;20052;-61
2021/11/20 00:45:34;;;;;;;18.42;5.90;;;;;;;10.46;76.94;102984.81;5066190;28;20067;-60
2021/11/20 00:48:00;;;;;;;10.00;4.95;;;;;;;10.49;76.50;102987.47;5066569;28;20070;-60
2021/11/20 00:50:26;;;;;;;8.48;3.72;;;;;;;10.50;76.49;102981.31;5086413;28;20028;-60
2021/11/20 00:52:52;;;;;;;12.90;7.05;;;;;;;10.51;76.22;102975.19;5087167;28;20053;-60
2021/11/20 00:55:23;;;;;;;10.73;5.63;;;;;;;10.54;76.52;102977.78;5088165;28;20068;-60
2021/11/20 00:57:49;;;;;;;13.88;6.30;;;;;;;10.53;76.58;102973.41;5087740;28;20043;-60
2021/11/20 01:00:16;;;;;;;11.07;6.32;;;;;;;10.52;76.49;102968.13;5070751;28;20479;-60
2021/11/20 01:02:42;;;;;;;12.60;5.60;;;;;;;10.54;76.22;102972.50;5067030;28;20041;-60
2021/11/20 01:05:10;;;;;;;13.75;5.70;;;;;;;10.57;76.04;102969.03;5079313;28;20044;-59
2021/11/20 01:07:35;;;;;;;15.13;7.68;;;;;;;10.55;75.88;102969.03;5119959;27;20115;-60
2021/11/20 01:10:02;;;;;;;11.80;6.95;;;;;;;10.53;75.94;102964.63;5086096;28;20113;-60
2021/11/20 01:12:32;;;;;;;11.50;7.10;;;;;;;10.54;75.38;102972.50;5087017;28;20490;-60
2021/11/20 01:14:59;;;;;;;8.48;6.13;;;;;;;10.55;75.70;102973.41;5085124;28;20059;-61
2021/11/20 01:17:26;;;;;;;13.85;8.35;;;;;;;10.52;75.21;102960.22;5086926;28;20659;-61
2021/11/20 01:19:53;;;;;;;13.63;9.07;;;;;;;10.49;75.49;102958.47;5086124;28;20024;-61
2021/11/20 01:22:22;;;;;;;16.45;10.05;;;;;;;10.50;75.61;102949.69;5087324;28;20463;-59
2021/11/20 01:24:49;;;;;;;;;;;;;;;10.48;76.00;102956.72;5086488;28;20028;-60
2021/11/20 01:27:15;;;;;;;14.95;9.85;;;;;;;10.48;75.36;102967.25;5086700;28;19916;-60
2021/11/20 01:29:41;;;;;;;15.82;10.50;;;;;;;10.48;75.39;102970.75;5086072;28;20032;-60
2021/11/20 01:32:06;;;;;;;16.70;9.98;;;;;;;10.49;75.54;102963.75;5068238;28;20114;-60
2021/11/20 01:34:32;;;;;;;13.73;9.93;;;;;;;10.50;75.73;102960.22;5065970;28;20021;-60
2021/11/20 01:36:59;;;;;;;14.30;10.48;;;;;;;10.46;75.63;102953.19;5080452;28;20036;-61
2021/11/20 01:39:28;;;;;;;19.38;12.02;;;;;;;10.42;75.93;102952.25;5086951;28;20028;-60
2021/11/20 01:41:56;;;;;;;18.48;11.68;;;;;;;10.43;75.52;102951.41;5073256;28;20032;-61
2021/11/20 01:44:27;;;;;;;17.50;12.00;;;;;;;10.44;75.77;102954.91;5066695;28;20055;-61
2021/11/20 01:47:00;;;;;;;12.38;9.10;;;;;;;10.45;75.99;102954.06;5086084;28;20082;-60
2021/11/20 01:49:37;;;;;;;14.95;10.80;;;;;;;10.43;76.01;102951.41;5084979;28;20027;-60
2021/11/20 01:52:10;;;;;;;20.17;12.32;;;;;;;10.44;75.92;102944.38;5086712;28;20020;-60
2021/11/20 01:54:49;;;;;;;22.60;12.88;;;;;;;10.41;76.26;102939.13;5084148;28;20429;-59
2021/11/20 01:57:31;;;;;;;18.17;12.05;;;;;;;10.39;76.04;102935.59;5085471;28;20525;-60
2021/11/20 02:00:06;;;;;;;15.50;11.52;;;;;;;10.40;76.31;102937.34;5084401;28;20043;-60
2021/11/20 02:02:38;;;;;;;22.23;13.30;;;;;;;10.38;76.03;102934.69;5085564;28;20065;-60
2021/11/20 02:05:11;;;;;;;19.10;13.52;;;;;;;10.37;76.11;102930.31;5084681;28;20532;-61
2021/11/20 02:07:59;;;;;;;18.08;13.18;;;;;;;10.36;75.44;102926.78;5085024;28;20040;-60
2021/11/20 02:10:35;;;;;;;20.70;14.15;;;;;;;10.35;75.67;102916.25;5083732;28;20032;-61
2021/11/20 02:13:06;;;;;;;23.00;14.45;;;;;;;10.35;75.98;102922.41;5086260;28;20535;-60
2021/11/20 02:15:51;;;;;;;21.27;14.30;;;;;;;10.36;75.87;102928.56;5082088;28;20107;-61
2021/11/20 02:18:19;;;;;;;23.20;14.98;;;;;;;10.35;75.75;102927.69;5075142;28;20425;-60
2021/11/20 02:21:16;;;;;;;19.25;12.77;;;;;;;10.37;75.53;102927.69;5085890;28;20094;-60
2021/11/20 02:23:41;;;;;;;21.50;15.18;;;;;;;10.35;75.75;102932.94;5084884;28;20036;-60
2021/11/20 02:26:07;;;;;;;21.13;14.43;;;;;;;10.35;75.37;102919.78;5085647;28;20070;-60
2021/11/20 02:28:33;;;;;;;16.23;11.93;;;;;;;10.36;75.21;102918.03;5084933;28;20055;-60
2021/11/20 02:31:01;;;;;;;20.20;14.02;;;;;;;10.33;75.43;102926.78;5073607;28;20028;-60
2021/11/20 02:33:36;;;;;;;21.80;15.23;;;;;;;10.32;75.27;102927.69;5065519;28;20082;-60
2021/11/20 02:36:12;;;;;;;23.90;14.95;;;;;;;10.36;75.02;102928.56;5071205;28;20108;-60
2021/11/20 02:38:49;;;;;;;20.23;14.77;;;;;;;10.36;74.86;102921.53;5085739;28;20022;-60
2021/11/20 02:41:18;;;;;;;18.40;13.32;;;;;;;10.36;75.01;102907.50;5084899;28;20054;-60
2021/11/20 02:43:47;;;;;;;21.02;14.60;;;;;;;10.36;75.09;102915.41;5085629;28;20028;-59
2021/11/20 02:46:15;;;;;;;20.58;14.88;;;;;;;10.33;74.81;102908.34;5084903;28;20060;-60
2021/11/20 02:48:41;;;;;;;18.98;13.57;;;;;;;10.32;74.81;102910.97;5085274;28;20417;-60
2021/11/20 02:51:09;;;;;;;22.02;13.43;;;;;;;10.34;74.51;102902.22;5068808;28;20288;-60
2021/11/20 02:53:43;;;;;;;22.33;15.93;;;;;;;10.31;74.81;102901.31;5065411;28;20025;-60
2021/11/20 02:56:12;;;;;;;19.70;13.65;;;;;;;10.31;75.11;102901.31;5079192;28;20085;-61
2021/11/20 02:58:38;;;;;;;20.60;12.75;;;;;;;10.30;74.83;102899.56;5085681;28;20107;-60
2021/11/20 03:01:09;;;;;;;19.17;12.95;;;;;;;10.28;74.44;102894.31;5072154;28;20467;-60
2021/11/20 03:03:34;;;;;;;22.98;15.30;;;;;;;10.26;74.64;102890.78;5065681;28;20032;-60
2021/11/20 03:05:59;;;;;;;15.85;11.43;;;;;;;10.26;74.73;102889.91;5065352;28;20546;-60
2021/11/20 03:08:25;;;;;;;21.80;14.63;;;;;;;10.26;74.67;102890.78;5065643;28;20020;-60
2021/11/20 03:10:50;;;;;;;23.85;14.75;;;;;;;10.24;74.47;102885.50;5080186;28;20028;-60
2021/11/20 03:13:17;;;;;;;18.85;13.65;;;;;;;10.25;74.31;102886.41;5085284;28;20024;-60
2021/11/20 03:15:43;;;;;;;20.33;14.23;;;;;;;10.25;74.10;102889.03;5084166;28;20505;-59
2021/11/20 03:18:08;;;;;;;18.48;13.15;;;;;;;10.24;74.52;102880.25;5085289;28;20027;-60
2021/11/20 03:20:34;;;;;;;21.70;14.88;;;;;;;10.23;74.48;102875.84;5084740;28;20020;-60
2021/11/20 03:23:19;;;;;;;20.15;13.27;;;;;;;10.24;73.71;102880.25;5085403;28;20020;-60
2021/11/20 03:25:44;;;;;;;20.30;14.20;;;;;;;10.24;73.58;102879.38;5084315;28;20060;-60
2021/11/20 03:28:09;;;;;;;19.27;13.48;;;;;;;10.23;73.72;102882.88;5085003;28;20141;-61
2021/11/20 03:30:35;;;;;;;18.98;12.82;;;;;;;10.22;73.51;102866.19;5077128;28;20041;-60
2021/11/20 03:33:01;;;;;;;17.25;13.02;;;;;;;10.23;73.57;102862.69;5085506;28;20016;-60
2021/11/20 03:35:28;;;;;;;17.10;12.45;;;;;;;10.21;73.59;102866.19;5086924;28;20098;-60
2021/11/20 03:37:53;;;;;;;19.92;12.95;;;;;;;10.21;73.49;102866.19;5089469;28;20028;-61
2021/11/20 03:40:19;;;;;;;20.92;12.48;;;;;;;10.21;73.35;102872.31;5088857;28;20018;-60
2021/11/20 03:42:45;;;;;;;16.52;11.85;;;;;;;10.23;73.26;102873.22;5089173;28;20038;-60
2021/11/20 03:45:11;;;;;;;18.50;12.27;;;;;;;10.23;72.92;102870.59;5087380;28;20016;-60
2021/11/20 03:47:36;;;;;;;15.90;11.50;;;;;;;10.22;72.88;102870.59;5072808;28;20147;-60
2021/11/20 03:50:04;;;;;;;15.65;9.27;;;;;;;10.22;72.76;102863.56;5068287;28;20055;-60
2021/11/20 03:52:29;;;;;;;16.52;11.65;;;;;;;10.23;72.37;102856.53;5071671;28;20021;-64
2021/11/20 03:54:54;;;;;;;22.45;11.18;;;;;;;10.23;72.33;102851.25;5068892;28;20036;-60
2021/11/20 03:57:20;;;;;;;9.70;8.10;;;;;;;10.23;72.48;102849.50;5067341;28;20063;-60
2021/11/20 03:59:45;;;;;;;14.25;10.05;;;;;;;10.22;72.57;102850.41;5068343;28;20025;-60
2021/11/20 04:02:11;;;;;;;10.75;8.10;;;;;;;10.22;71.91;102846.88;5067159;28;20020;-60
2021/11/20 04:04:36;;;;;;;12.18;8.27;;;;;;;10.21;71.90;102850.38;5089456;28;20024;-60
2021/11/20 04:07:02;;;;;;;10.18;6.97;;;;;;;10.23;71.75;102859.16;5087559;28;20450;-60
2021/11/20 04:09:28;;;;;;;12.63;7.57;;;;;;;10.24;71.82;102853.03;5088440;28;20436;-60
2021/11/20 04:11:54;;;;;;;7.65;6.50;;;;;;;10.25;71.53;102854.78;5087485;28;20012;-60
2021/11/20 04:14:21;;;;;;;8.65;6.93;;;;;;;10.26;71.63;102856.53;5079978;28;20025;-60
2021/11/20 04:16:46;;;;;;;9.77;7.70;;;;;;;10.22;71.22;102860.94;5084293;28;20027;-60
2021/11/20 04:19:12;;;;;;;8.20;6.97;;;;;;;10.22;71.60;102865.31;5068128;28;20103;-60
2021/11/20 04:21:38;;;;;;;11.55;7.90;;;;;;;10.21;71.52;102853.03;5067477;28;20074;-60
2021/11/20 04:24:05;;;;;;;9.52;7.95;;;;;;;10.22;71.36;102857.41;5073363;28;20438;-60
2021/11/20 04:26:30;;;;;;;13.35;9.75;;;;;;;10.19;70.96;102862.69;5073882;28;20064;-60
2021/11/20 04:28:56;;;;;;;9.07;7.43;;;;;;;10.22;71.08;102850.41;5088518;28;20032;-60
2021/11/20 04:31:21;;;;;;;13.07;9.57;;;;;;;10.21;70.88;102840.72;5085488;28;20462;-60
2021/11/20 04:33:49;;;;;;;11.20;7.72;;;;;;;10.21;71.26;102840.72;5083979;28;20020;-60
2021/11/20 04:36:15;;;;;;;9.65;6.82;;;;;;;10.21;71.18;102843.34;5084507;28;20500;-60
2021/11/20 04:38:41;;;;;;;11.63;9.90;;;;;;;10.22;71.24;102837.22;5073423;28;20245;-60
2021/11/20 04:41:07;;;;;;;10.93;8.93;;;;;;;10.21;71.34;102835.44;5068803;28;20032;-60
2021/11/20 04:43:33;;;;;;;10.52;8.88;;;;;;;10.18;70.60;102831.94;5081851;28;20132;-60
2021/11/20 04:45:58;;;;;;;11.95;9.75;;;;;;;10.19;71.05;102833.69;5071669;28;20028;-60
2021/11/20 04:48:24;;;;;;;10.35;8.93;;;;;;;10.20;70.52;102835.44;5066586;28;20501;-60
2021/11/20 04:50:52;;;;;;;10.02;9.00;;;;;;;10.21;70.63;102831.94;5073212;28;20381;-60
2021/11/20 04:53:18;;;;;;;10.80;8.77;;;;;;;10.21;70.88;102837.22;5085822;28;20016;-60
2021/11/20 04:55:44;;;;;;;12.25;9.90;;;;;;;10.22;70.57;102839.84;5085760;28;20049;-60
2021/11/20 04:58:09;;;;;;;13.77;10.73;;;;;;;10.19;70.53;102844.22;5073772;28;20036;-60
2021/11/20 05:00:38;;;;;;;13.07;10.10;;;;;;;10.20;70.04;102843.34;5070754;28;20028;-60
2021/11/20 05:03:05;;;;;;;10.77;8.75;;;;;;;10.21;70.38;102842.50;5067623;28;20074;-60
2021/11/20 05:05:32;;;;;;;12.10;10.30;;;;;;;10.23;70.04;102840.72;5067641;28;20719;-60
2021/11/20 05:07:57;;;;;;;11.77;10.57;;;;;;;10.22;70.64;102836.34;5067780;28;20031;-60
2021/11/20 05:10:22;;;;;;;12.93;10.75;;;;;;;10.21;70.17;102834.59;5068044;28;20020;-61
2021/11/20 05:12:48;;;;;;;9.90;8.63;;;;;;;10.21;70.52;102839.84;5067968;28;20455;-61
2021/11/20 05:15:14;;;;;;;12.45;9.65;;;;;;;10.22;70.35;102831.94;5066939;28;20327;-60
2021/11/20 05:17:40;;;;;;;12.80;11.30;;;;;;;10.21;70.42;102831.94;5073709;28;20024;-60
2021/11/20 05:20:06;;;;;;;16.08;10.70;;;;;;;10.19;70.58;102828.44;5086012;28;20034;-61
2021/11/20 05:22:31;;;;;;;16.40;12.38;;;;;;;10.20;70.78;102814.38;5086579;28;20467;-60
2021/11/20 05:24:56;;;;;;;18.17;14.60;;;;;;;10.21;71.21;102826.69;5071142;28;20045;-60
2021/11/20 05:27:22;;;;;;;17.80;14.85;;;;;;;10.19;71.48;102818.78;5076537;28;20045;-61
2021/11/20 05:29:58;;;;;;;17.77;13.52;;;;;;;10.17;71.80;102803.84;5076235;28;20123;-59
2021/11/20 05:32:23;;;;;;;22.35;16.35;;;;;;;10.16;71.75;102802.97;5079873;28;20087;-60
2021/11/20 05:34:49;;;;;;;17.98;14.35;;;;;;;10.17;71.67;102802.09;5087710;28;20158;-60
2021/11/20 05:37:14;;;;;;;21.13;17.17;;;;;;;10.15;71.62;102801.22;5087172;28;20107;-60
2021/11/20 05:39:40;;;;;;;21.23;16.88;;;;;;;10.16;71.70;102796.81;5086211;28;20080;-60
2021/11/20 05:42:07;;;;;;;22.65;16.33;;;;;;;10.14;71.64;102793.31;5086974;28;20425;-60
2021/11/20 05:44:32;;;;;;;22.08;14.90;;;;;;;10.15;71.70;102798.59;5079627;28;20229;-60
2021/11/20 05:46:59;;;;;;;23.88;17.23;;;;;;;10.11;72.00;102787.16;5070999;28;20534;-60
2021/11/20 05:49:29;;;;;;;24.27;17.88;;;;;;;10.10;72.10;102790.69;5066995;28;20020;-61
2021/11/20 05:51:55;;;;;;;24.70;18.20;;;;;;;10.07;72.26;102790.69;5064397;28;20111;-60
2021/11/20 05:54:20;;;;;;;23.70;16.63;;;;;;;10.07;71.76;102790.69;5067688;28;20158;-60
2021/11/20 05:56:46;;;;;;;25.33;18.35;;;;;;;10.08;72.25;102786.28;5065909;28;20029;-61
2021/11/20 05:59:11;;;;;;;21.83;15.48;;;;;;;10.08;72.07;102784.53;5078702;28;20032;-60
2021/11/20 06:01:36;;;;;;;25.42;18.65;;;;;;;10.06;71.79;102791.53;5085959;28;20017;-60
2021/11/20 06:04:02;;;;;;;25.08;19.85;;;;;;;10.07;71.84;102779.25;5085652;28;20097;-61
2021/11/20 06:06:27;;;;;;;28.38;20.40;;;;;;;10.04;72.02;102777.50;5076853;28;20036;-60
2021/11/20 06:08:52;;;;;;;30.80;20.48;;;;;;;10.03;71.88;102767.88;5065265;28;20050;-61
2021/11/20 06:11:19;;;;;;;26.25;19.25;;;;;;;10.02;71.65;102763.44;5066664;28;20075;-59
2021/11/20 06:13:45;;;;;;;31.10;20.58;;;;;;;9.98;71.63;102753.81;5085672;28;20031;-60
2021/11/20 06:16:10;;;;;;;26.10;19.17;;;;;;;9.99;71.87;102753.81;5084646;28;20077;-60
2021/11/20 06:18:35;;;;;;;29.90;21.30;;;;;;;9.99;71.91;102747.66;5085666;28;20039;-62
2021/11/20 06:21:03;;;;;;;27.95;19.90;;;;;;;10.02;71.38;102754.69;5085392;28;20027;-60
2021/11/20 06:23:29;;;;;;;29.33;20.60;;;;;;;10.01;71.51;102751.19;5066783;28;20039;-60
2021/11/20 06:25:56;;;;;;;31.05;21.38;;;;;;;9.98;71.56;102751.19;5065409;28;20059;-61
2021/11/20 06:28:21;;;;;;;26.23;19.98;;;;;;;9.98;71.99;102746.78;5080121;28;20405;-61
2021/11/20 06:30:47;;;;;;;30.77;20.33;;;;;;;9.98;71.74;102748.53;5085830;28;20020;-60
2021/11/20 06:33:13;;;;;;;26.52;19.88;;;;;;;9.96;71.68;102752.91;5084818;28;20020;-61
2021/11/20 06:35:38;;;;;;;27.67;19.80;;;;;;;9.97;71.43;102750.28;5086342;28;20058;-60
2021/11/20 06:38:04;;;;;;;26.48;19.77;;;;;;;9.96;71.51;102751.19;5074292;28;20070;-60
2021/11/20 06:40:36;;;;;;;24.80;18.00;;;;;;;9.98;71.56;102751.19;5065640;28;20017;-61
2021/11/20 06:43:03;;;;;;;29.80;20.85;;;;;;;9.96;71.58;102747.66;5073035;28;20482;-60
2021/11/20 06:45:32;;;;;;;29.23;21.98;;;;;;;9.95;71.65;102745.91;5085102;28;20032;-60
2021/11/20 06:47:58;;;;;;;29.13;20.45;;;;;;;9.95;71.38;102754.69;5083115;28;20421;-60
2021/11/20 06:50:25;;;;;;;23.75;17.88;;;;;;;9.97;71.61;102750.28;5085902;28;20023;-60
2021/11/20 06:52:50;;;;;;;24.60;19.45;;;;;;;9.95;71.28;102748.53;5084800;28;20024;-60
2021/11/20 06:55:17;;;;;;;25.23;19.48;;;;;;;9.92;71.54;102752.06;5079297;28;20034;-60
2021/11/20 07:00:26;;;;;;;28.00;20.83;;;;;;;9.92;71.58;102752.06;5063611;28;20032;-59
2021/11/20 07:02:55;;;;;;;27.13;19.30;;;;;;;9.92;71.41;102753.81;5065010;28;20028;-61
2021/11/20 07:05:21;;;;;;;27.23;20.05;;;;;;;9.92;71.69;102745.91;5065817;28;20048;-60
2021/11/20 07:07:47;;;;;;;29.73;22.88;;;;;;;9.93;71.90;102747.69;5064870;28;20463;-60
2021/11/20 07:10:16;;;;;;;32.65;23.90;;;;;;;9.94;72.09;102752.06;5067939;28;20035;-60
2021/11/20 07:12:41;;;;;;;34.58;24.52;;;;;;;9.91;71.64;102741.53;5072929;28;20024;-60
2021/11/20 07:15:07;;;;;;;33.47;23.60;;;;;;;9.90;71.67;102750.31;5088557;28;20443;-60
2021/11/20 07:17:32;;;;;;;29.45;21.52;;;;;;;9.91;71.86;102750.31;5085668;28;20024;-60
2021/11/20 07:19:58;;;;;;;35.22;24.85;;;;;;;9.91;72.29;102747.69;5068113;28;20028;-60
2021/11/20 07:22:23;;;;;;;32.22;24.35;;;;;;;9.90;71.95;102743.28;5067460;28;20108;-61
2021/11/20 07:24:48;;;;;;;35.08;21.30;;;;;;;9.91;72.03;102746.78;5090459;28;20027;-60
2021/11/20 07:27:14;;;;;;;32.47;24.60;;;;;;;9.91;71.99;102750.31;5088211;28;20174;-60
2021/11/20 07:29:39;;;;;;;29.63;21.40;;;;;;;9.93;72.30;102734.50;5086292;28;20388;-60
2021/11/20 07:32:07;;;;;;;34.08;23.38;;;;;;;9.92;72.20;102731.00;5088794;28;20321;-60
2021/11/20 07:34:32;;;;;;;30.17;20.08;;;;;;;9.93;72.31;102732.75;5087842;28;20028;-61
2021/11/20 07:36:58;;;;;;;30.17;21.95;;;;;;;9.91;72.46;102723.97;5089073;28;20330;-60
2021/11/20 07:39:23;;;;;;;31.40;22.77;;;;;;;9.93;72.58;102726.63;5087540;28;20053;-60
2021/11/20 07:41:50;;;;;;;31.05;20.67;;;;;;;9.93;72.35;102723.97;5089436;28;20024;-62
2021/11/20 07:44:16;;;;;;;30.17;21.17;;;;;;;9.94;72.42;102725.72;5081877;28;20067;-62
2021/11/20 07:46:41;;;;;;;32.15;22.98;;;;;;;9.96;72.46;102726.59;5068752;28;20421;-61
2021/11/20 07:49:07;;;;;;;32.60;22.58;;;;;;;9.99;72.10;102731.84;5069641;28;20530;-62
2021/11/20 07:51:32;;;;;;;35.08;22.55;;;;;;;9.96;72.29;102723.94;5087964;28;20091;-59
2021/11/20 07:53:57;;;;;;;35.22;23.27;;;;;;;9.96;72.51;102723.94;5086387;28;20032;-60
2021/11/20 07:56:27;;;;;;;34.72;23.38;;;;;;;9.95;72.82;102725.72;5088861;28;20027;-60
2021/11/20 07:58:52;;;;;;;;;;;;;;;9.96;72.84;102718.69;5084405;28;20462;-59
2021/11/20 08:01:17;;;;;;;25.10;17.65;;;;;;;9.97;72.84;102717.81;5088314;28;19912;-59
2021/11/20 08:03:43;;;;;;;30.15;21.73;;;;;;;9.99;73.16;102711.66;5087405;28;20363;-59
2021/11/20 08:06:08;;;;;;;24.77;18.20;;;;;;;10.01;72.59;102709.03;5086020;28;20437;-59
2021/11/20 08:08:35;;;;;;;27.10;19.58;;;;;;;10.03;72.67;102704.66;5087600;28;20015;-59
2021/11/20 08:11:01;;;;;;;36.20;22.90;;;;;;;10.04;72.41;102705.50;5087111;28;20047;-59
2021/11/20 08:13:27;;;;;;;33.53;23.25;;;;;;;10.05;72.60;102699.38;5087775;28;20024;-59
2021/11/20 08:15:52;;;;;;;33.40;23.65;;;;;;;10.05;72.46;102694.97;5083147;28;20027;-60
2021/11/20 08:18:18;;;;;;;33.15;22.80;;;;;;;10.07;72.35;102692.34;5087896;28;20050;-59
2021/11/20 08:20:44;;;;;;;31.83;22.48;;;;;;;10.10;72.53;102694.97;5086540;28;20099;-60
2021/11/20 08:23:14;;;;;;;27.25;19.05;;;;;;;10.10;72.24;102687.97;5068851;28;20020;-59
2021/11/20 08:25:41;;;;;;;34.80;23.77;;;;;;;10.12;72.62;102685.31;5084268;28;20077;-59
2021/11/20 08:28:09;;;;;;;22.70;16.10;;;;;;;10.19;71.99;102686.16;5087109;28;20044;-60
2021/11/20 08:30:35;;;;;;;31.73;21.88;;;;;;;10.22;72.13;102676.50;5082928;28;20034;-60
2021/11/20 08:33:01;;;;;;;35.53;23.98;;;;;;;10.21;71.87;102679.16;5085918;28;20024;-61
2021/11/20 08:35:27;;;;;;;34.80;22.70;;;;;;;10.26;71.78;102676.50;5086106;28;20043;-62
2021/11/20 08:37:54;;;;;;;35.25;23.95;;;;;;;10.27;71.97;102678.25;5085070;28;20479;-59
2021/11/20 08:40:23;;;;;;;35.45;25.27;;;;;;;10.27;72.42;102673.88;5086045;28;20047;-63
2021/11/20 08:42:48;;;;;;;;;;;;;;;10.26;71.96;102668.59;5088899;28;20020;-61
2021/11/20 08:45:20;;;;;;;36.58;24.75;;;;;;;10.26;71.85;102672.09;5085769;28;20328;-63
2021/11/20 08:47:47;;;;;;;38.35;25.48;;;;;;;10.32;72.17;102661.53;5086585;28;20085;-63
2021/11/20 08:50:17;;;;;;;33.15;23.77;;;;;;;10.32;71.94;102661.53;5086033;28;20103;-59
2021/11/20 08:52:43;;;;;;;36.83;26.25;;;;;;;10.34;72.18;102664.16;5082798;28;20053;-59
2021/11/20 08:55:09;;;;;;;40.88;28.38;;;;;;;10.34;72.05;102665.06;5086477;28;20020;-63
2021/11/20 08:57:34;;;;;;;41.47;26.35;;;;;;;10.36;72.53;102655.38;5081297;28;20374;-64
2021/11/20 09:00:00;;;;;;;43.65;26.98;;;;;;;10.34;72.14;102656.25;5085739;28;20020;-61
2021/11/20 09:02:34;;;;;;;43.20;27.58;;;;;;;10.35;72.50;102664.16;5087739;28;20017;-59
2021/11/20 09:05:13;;;;;;;39.65;26.15;;;;;;;10.35;72.51;102655.38;5086804;28;20050;-59
2021/11/20 09:07:59;;;;;;;37.03;23.88;;;;;;;10.41;72.25;102655.34;5087459;28;20367;-62
2021/11/20 09:10:40;;;;;;;39.83;24.52;;;;;;;10.46;72.16;102644.81;5087588;28;20433;-59
2021/11/20 09:13:30;;;;;;;46.03;27.33;;;;;;;10.42;72.54;102650.97;5069831;28;20031;-62
2021/11/20 09:16:06;;;;;;;41.38;27.15;;;;;;;10.43;72.67;102643.06;5082008;28;20016;-62
2021/11/20 09:18:33;;;;;;;44.42;28.30;;;;;;;10.41;72.67;102644.81;5086797;28;20255;-60
2021/11/20 09:20:59;;;;;;;52.08;30.60;;;;;;;10.38;72.89;102641.34;5083116;28;20328;-59
2021/11/20 09:23:25;;;;;;;50.08;31.65;;;;;;;10.40;73.10;102639.53;5086162;28;20162;-58
2021/11/20 09:25:53;;;;;;;48.35;29.42;;;;;;;10.43;72.84;102642.16;5086152;28;20024;-57
2021/11/20 09:28:19;;;;;;;45.72;29.55;;;;;;;10.43;73.21;102643.06;5067849;28;20041;-58
2021/11/20 09:30:47;;;;;;;41.92;27.42;;;;;;;10.46;72.99;102642.19;5064638;28;20031;-58
2021/11/20 09:33:13;;;;;;;49.97;31.73;;;;;;;10.43;73.12;102629.00;5060679;28;20471;-57
2021/11/20 09:35:40;;;;;;;44.15;29.90;;;;;;;10.42;72.90;102638.66;5060437;28;20027;-56
2021/11/20 09:38:06;;;;;;;40.97;26.52;;;;;;;10.46;73.33;102636.91;5063143;28;20016;-58
2021/11/20 09:40:35;;;;;;;45.20;29.23;;;;;;;10.50;73.10;102636.03;5062102;28;20115;-60
2021/11/20 09:43:04;;;;;;;40.40;24.40;;;;;;;10.51;73.29;102634.28;5061659;28;20028;-62
2021/11/20 09:45:33;;;;;;;45.65;28.52;;;;;;;10.51;73.15;102640.44;5063039;28;20024;-61
2021/11/20 09:48:00;;;;;;;;;;;;;;;10.45;73.70;102635.16;5061359;28;20089;-61
2021/11/20 09:50:38;;;;;;;46.97;29.50;;;;;;;10.44;73.65;102633.38;5062563;28;20618;-61
2021/11/20 09:53:06;;;;;;;49.22;30.33;;;;;;;10.46;73.60;102640.44;5042464;28;20489;-60
2021/11/20 09:55:36;;;;;;;45.03;28.45;;;;;;;10.51;73.30;102640.44;5060824;28;20506;-64
2021/11/20 09:58:26;;;;;;;50.60;29.40;;;;;;;10.45;73.30;102629.88;5062540;28;20035;-64
2021/11/20 10:01:05;;;;;;;44.28;26.88;;;;;;;10.46;73.68;102627.25;5061074;28;20077;-64
2021/11/20 10:16:07;;;;;;;26.05;16.33;;;;;;;11.03;71.32;102580.34;5018693;28;20221;-54
2021/11/20 10:18:48;;;;;;;34.25;20.85;;;;;;;10.95;72.20;102587.41;5018565;28;20060;-57
2021/11/20 10:21:16;;;;;;;28.45;18.05;;;;;;;10.89;72.08;102580.44;5034063;28;20055;-56
2021/11/20 10:23:53;;;;;;;33.90;21.77;;;;;;;10.83;72.73;102575.19;5036464;28;20032;-55
2021/11/20 10:27:28;;;;;;;30.02;20.08;;;;;;;10.86;72.73;102581.34;5080558;27;20856;-54
2021/11/20 10:30:17;;;;;;;28.48;17.70;;;;;;;10.91;72.21;102577.78;5077996;28;20032;-55
2021/11/20 10:32:59;;;;;;;21.80;15.43;;;;;;;10.91;72.28;102581.31;5079329;28;20027;-55
2021/11/20 10:35:49;;;;;;;24.23;16.98;;;;;;;10.91;72.29;102577.78;5069857;28;20035;-56
2021/11/20 10:38:20;;;;;;;23.02;15.90;;;;;;;10.90;72.54;102583.94;5079867;28;20023;-55
2021/11/20 10:41:09;;;;;;;25.40;15.98;;;;;;;10.89;72.64;102577.78;5078647;28;20134;-56
2021/11/20 10:43:48;;;;;;;27.80;18.50;;;;;;;10.87;73.10;102579.59;5076715;28;20074;-56
2021/11/20 10:46:29;;;;;;;26.08;16.48;;;;;;;10.87;72.94;102580.44;5075061;28;20464;-58
2021/11/20 10:49:20;;;;;;;30.38;20.48;;;;;;;10.85;73.21;102571.69;5073707;28;20035;-56
2021/11/20 10:51:53;;;;;;;29.05;19.98;;;;;;;10.90;72.69;102570.75;5078227;28;20024;-55
2021/11/20 10:54:28;;;;;;;34.75;21.48;;;;;;;10.89;72.56;102569.03;5078421;28;20493;-58
2021/11/20 10:57:02;;;;;;;23.75;17.35;;;;;;;10.97;72.51;102560.16;5076684;28;20024;-58
2021/11/20 10:59:33;;;;;;;24.45;17.50;;;;;;;10.96;72.75;102554.91;5078487;28;20046;-56
2021/11/20 11:02:27;;;;;;;28.45;17.80;;;;;;;10.97;73.22;102564.56;5077333;28;20070;-56
2021/11/20 11:05:30;;;;;;;20.60;14.63;;;;;;;10.89;73.49;102540.88;5078030;28;20023;-55
2021/11/20 11:08:19;;;;;;;26.10;17.33;;;;;;;10.86;73.30;102544.41;5076746;28;20027;-56
2021/11/20 11:10:49;;;;;;;22.45;15.10;;;;;;;10.91;73.43;102533.84;5078672;28;20576;-56
2021/11/20 11:13:46;;;;;;;25.20;15.18;;;;;;;10.87;73.66;102530.31;5062195;28;20074;-57
2021/11/20 11:16:23;;;;;;;19.23;13.25;;;;;;;10.87;73.73;102526.84;5075018;28;20655;-55
2021/11/20 11:18:55;;;;;;;28.08;17.98;;;;;;;10.90;73.70;102534.72;5073335;28;20628;-56
2021/11/20 11:21:32;;;;;;;28.05;17.65;;;;;;;10.92;73.47;102521.50;5069388;28;20123;-55
2021/11/20 11:24:30;;;;;;;33.10;18.40;;;;;;;10.88;73.66;102515.41;5084710;28;20059;-57
2021/11/20 11:27:38;;;;;;;24.55;15.43;;;;;;;10.84;74.22;102509.25;5100344;28;20549;-54
2021/11/20 11:30:09;;;;;;;26.23;16.95;;;;;;;10.85;73.98;102503.13;5099944;28;20490;-55
2021/11/20 11:32:38;;;;;;;30.38;17.40;;;;;;;10.84;74.35;102489.94;5097472;28;20474;-57
2021/11/20 11:35:15;;;;;;;27.52;17.75;;;;;;;10.89;74.13;102492.53;5094976;28;20048;-53
2021/11/20 11:37:49;;;;;;;30.65;18.70;;;;;;;10.79;74.13;102487.34;5088198;28;20395;-55
2021/11/20 11:40:51;;;;;;;28.85;18.58;;;;;;;10.81;74.25;102480.28;5085217;28;20051;-56